Latest Weather Observations for South Johnstone

IDQ60801

Issued at 11:32 pm EST Wednesday 28 September 2016 (issued every 30 minutes, with the page automatically refreshed every 10 minutes)

About weather observations | Map of weather stations | Latest weather observations for QLD | Other Formats
Station Details ID: 032037 Name: SOUTH JOHNSTONE EXP STN Lat: -17.61 Lon: 146.00 Height: 18.3 m
Data from the previous 72 hours. | See also: Recent months at South Johnstone
Date/Time
EST
Temp
°C
App
Temp
°C
Dew
Point
°C
Rel
Hum
%
Delta-T
°C
Wind Press
QNH
hPa
Press
MSL
hPa
Rain since
9am
mm
Dir  Spd
km/h
Gust
km/h
Spd
kts
Gust
kts
28/11:30pm 23.2 27.8 21.7 91 1.0 CALM 0 6 0 3 1012.7 - 0.0
28/11:00pm 23.1 26.9 21.6 91 1.0 WNW 4 9 2 5 1012.8 - 0.0
28/10:30pm 23.4 27.1 21.4 88 1.3 W 4 7 2 4 1012.9 - 0.0
28/10:00pm 23.1 26.3 21.3 90 1.2 WSW 6 11 3 6 1012.7 - 0.0
28/09:30pm 22.8 26.8 21.3 91 1.0 W 2 6 1 3 1012.5 - 0.0
28/09:00pm 22.9 26.9 21.4 91 1.0 WSW 2 7 1 4 1012.3 1012.2 0.0
28/08:30pm 23.1 27.5 21.3 90 1.2 CALM 0 0 0 0 1012.0 - 0.0
28/08:00pm 23.4 27.9 21.6 90 1.2 CALM 0 0 0 0 1011.9 - 0.0
28/07:30pm 23.7 27.9 21.0 85 1.8 CALM 0 0 0 0 1011.8 - 0.0
28/07:00pm 24.2 28.4 21.0 82 2.1 CALM 0 0 0 0 1011.5 - 0.0
28/06:30pm 24.8 29.0 21.0 79 2.5 CALM 0 4 0 2 1011.3 - 0.0
28/06:00pm 25.6 28.3 20.7 74 3.2 ENE 7 13 4 7 1011.2 1011.1 0.0
28/05:30pm 26.1 27.6 20.5 71 3.7 NE 13 20 7 11 1011.0 - 0.0
28/05:00pm 27.1 28.6 20.6 67 4.3 E 13 17 7 9 1010.7 - 0.0
28/04:30pm 27.2 28.5 20.2 65 4.6 ENE 13 22 7 12 1010.5 - 0.0
28/04:00pm 27.2 28.8 20.7 67 4.3 E 13 20 7 11 1010.5 - 0.0
28/03:30pm 28.0 29.3 20.9 65 4.7 E 15 24 8 13 1010.4 - 0.0
28/03:00pm 28.4 29.4 21.0 64 4.9 NE 17 24 9 13 1010.5 1010.4 0.0
28/02:30pm 29.1 30.6 21.2 62 5.3 NE 15 26 8 14 1010.8 - 0.0
28/02:00pm 29.1 30.6 20.6 60 5.6 NE 13 20 7 11 1010.9 - 0.0
28/01:30pm 28.8 30.0 20.6 61 5.4 NE 15 26 8 14 1011.5 - 0.0
28/01:00pm 29.1 29.7 19.4 55 6.3 ENE 15 24 8 13 1012.0 - 0.0
28/12:30pm 28.8 29.7 20.0 59 5.8 NE 15 26 8 14 1012.5 - 0.0
28/12:00pm 28.8 30.5 21.0 62 5.2 ENE 13 19 7 10 1013.0 1012.9 0.0
28/11:30am 29.1 31.6 21.7 64 5.0 NE 11 19 6 10 1013.4 - 0.0
28/11:00am 29.0 30.5 20.5 60 5.6 NE 13 20 7 11 1013.8 - 0.0
28/10:30am 29.0 32.0 21.9 65 4.8 NNE 9 17 5 9 1014.0 - 0.0
28/10:00am 28.5 32.7 21.8 67 4.5 SE 2 9 1 5 1014.4 - 0.0
28/09:30am 28.0 31.8 21.6 68 4.3 NNE 4 7 2 4 1014.7 - 0.0
28/09:00am 27.6 32.1 22.9 75 3.2 E 4 11 2 6 1014.5 1014.4 0.0
28/08:30am 26.0 31.2 22.9 83 2.1 CALM 0 4 0 2 1014.4 - 0.0
28/08:00am 24.3 28.1 22.7 91 1.1 WSW 7 11 4 6 1014.1 - 0.0
28/07:30am 22.9 26.5 22.0 95 0.6 SW 6 9 3 5 1013.7 - 0.0
28/07:00am 21.9 26.3 21.4 97 0.3 CALM 0 0 0 0 1013.5 - 0.0
28/06:30am 21.3 25.4 20.8 97 0.3 CALM 0 0 0 0 1013.2 - 0.0
28/06:00am 21.3 24.3 20.8 97 0.3 W 6 11 3 6 1013.0 1012.9 0.0
28/05:30am 21.6 24.5 21.1 97 0.3 WNW 7 9 4 5 1012.5 - 0.0
28/05:00am 21.9 25.2 21.4 97 0.3 W 6 11 3 6 1012.3 - 0.0
28/04:30am 21.8 25.4 21.3 97 0.3 W 4 11 2 6 1012.1 - 0.0
28/04:00am 22.1 25.4 21.5 96 0.4 W 6 9 3 5 1012.0 - 0.0
28/03:30am 22.0 25.7 21.5 97 0.3 WNW 4 7 2 4 1012.0 - 0.0
28/03:00am 21.9 24.6 21.4 97 0.3 WSW 9 13 5 7 1012.1 1012.0 0.0
28/02:30am 22.4 27.0 21.8 96 0.4 CALM 0 0 0 0 1012.3 - 0.0
28/02:00am 22.3 26.5 21.7 96 0.4 WSW 2 9 1 5 1012.6 - 0.0
28/01:30am 22.3 26.9 21.7 96 0.4 CALM 0 6 0 3 1013.0 - 0.0
28/01:00am 22.6 26.0 22.0 96 0.4 WSW 7 11 4 6 1013.3 - 0.0
28/12:30am 22.5 27.1 21.7 95 0.5 CALM 0 0 0 0 1013.6 - 0.0
28/12:00am 22.4 26.9 21.6 95 0.5 CALM 0 0 0 0 1013.7 1013.6 0.0
 
Date/Time
EST
Temp
°C
App
Temp
°C
Dew
Point
°C
Rel
Hum
%
Delta-T
°C
Wind Press
QNH
hPa
Press
MSL
hPa
Rain since
9am
mm
Dir  Spd
km/h
Gust
km/h
Spd
kts
Gust
kts
27/11:30pm 22.8 26.4 22.0 95 0.5 WSW 6 11 3 6 1013.7 - 0.0
27/11:00pm 22.9 27.7 22.1 95 0.5 CALM 0 6 0 3 1013.7 - 0.0
27/10:30pm 23.2 26.4 22.3 95 0.6 WSW 9 11 5 6 1013.7 - 0.0
27/10:00pm 23.3 28.2 22.4 95 0.6 CALM 0 2 0 1 1013.9 - 0.0
27/09:30pm 23.6 28.2 22.4 93 0.8 WSW 2 7 1 4 1013.7 - 0.0
27/09:00pm 24.2 27.5 22.6 91 1.1 SW 9 11 5 6 1013.6 1013.5 0.0
27/08:30pm 24.1 29.3 22.9 93 0.8 CALM 0 0 0 0 1013.4 - 0.0
27/08:00pm 24.7 30.0 23.1 91 1.1 CALM 0 0 0 0 1013.3 - 0.0
27/07:30pm 24.5 28.4 22.6 89 1.3 S 6 7 3 4 1013.0 - 0.0
27/07:00pm 24.7 28.6 22.5 87 1.5 SE 6 9 3 5 1012.5 - 0.0
27/06:30pm 25.2 29.0 22.7 86 1.7 E 7 9 4 5 1012.1 - 0.0
27/06:00pm 26.0 29.2 22.4 80 2.4 E 9 11 5 6 1011.7 1011.6 0.0
27/05:30pm 26.9 30.2 22.5 77 3.0 E 9 13 5 7 1011.5 - 0.0
27/05:00pm 27.4 30.4 22.0 72 3.6 E 9 15 5 8 1011.1 - 0.0
27/04:30pm 27.8 30.3 21.8 70 4.0 E 11 19 6 10 1010.8 - 0.0
27/04:00pm 28.6 30.8 21.8 66 4.6 E 13 20 7 11 1010.6 - 0.0
27/03:30pm 29.3 31.6 21.4 62 5.3 ESE 11 17 6 9 1010.8 - 0.0
27/03:00pm 29.0 31.1 21.7 64 4.9 ESE 13 20 7 11 1010.9 1010.8 0.0
27/02:30pm 29.7 30.9 21.5 61 5.5 E 17 24 9 13 1010.9 - 0.0
27/02:00pm 30.2 32.7 22.4 63 5.3 ESE 13 22 7 12 1011.2 - 0.0
27/01:30pm 29.3 31.2 21.4 62 5.3 E 13 20 7 11 1011.5 - 0.0
27/01:00pm 30.1 32.5 20.8 57 6.2 E 9 15 5 8 1012.0 - 0.0
27/12:30pm 30.4 33.3 21.8 60 5.8 SSE 9 26 5 14 1012.6 - 0.0
27/12:00pm 28.9 31.6 21.3 63 5.1 SE 9 15 5 8 1013.4 1013.3 0.0
27/11:30am 28.8 31.3 21.0 62 5.2 S 9 15 5 8 1013.9 - 0.0
27/11:00am 28.5 31.0 21.8 67 4.5 SSE 11 15 6 8 1014.2 - 0.0
27/10:30am 28.3 31.0 20.7 63 5.0 S 7 13 4 7 1014.5 - 0.0
27/10:00am 27.7 30.7 21.2 67 4.3 SSE 7 13 4 7 1014.8 - 0.0
27/09:30am 27.8 31.2 21.7 69 4.1 ESE 6 9 3 5 1015.0 - 0.0
27/09:00am 27.4 32.0 21.7 71 3.8 CALM 0 0 0 0 1015.2 1015.1 0.0
27/08:30am 26.3 31.5 22.8 81 2.4 CALM 0 0 0 0 1015.3 - 0.0
27/08:00am 23.8 28.7 22.3 91 1.0 CALM 0 6 0 3 1015.1 - 0.0
27/07:30am 22.1 26.5 21.3 95 0.5 CALM 0 0 0 0 1015.0 - 0.0
27/07:00am 20.9 23.7 20.4 97 0.3 SW 6 7 3 4 1014.8 - 0.0
27/06:30am 20.5 24.3 20.2 98 0.2 CALM 0 0 0 0 1014.2 - 0.0
27/06:00am 20.7 24.6 20.4 98 0.2 CALM 0 0 0 0 1013.7 1013.6 0.0
27/05:30am 20.8 24.7 20.3 97 0.3 CALM 0 0 0 0 1013.4 - 0.0
27/05:00am 21.0 25.0 20.5 97 0.3 CALM 0 7 0 4 1013.0 - 0.0
27/04:30am 21.3 25.0 20.8 97 0.3 WSW 2 7 1 4 1012.8 - 0.0
27/04:00am 21.3 25.4 20.8 97 0.3 CALM 0 0 0 0 1012.7 - 0.0
27/03:30am 21.3 25.4 20.7 96 0.4 CALM 0 0 0 0 1012.7 - 0.0
27/03:00am 21.7 24.7 21.2 97 0.3 WSW 7 11 4 6 1012.9 1012.8 0.0
27/02:30am 21.6 23.4 21.1 97 0.3 SW 13 15 7 8 1013.0 - 0.0
27/02:00am 21.5 24.6 21.0 97 0.3 W 6 11 3 6 1013.2 - 0.0
27/01:30am 21.6 24.5 21.0 96 0.4 WSW 7 11 4 6 1013.3 - 0.0
27/01:00am 22.0 26.4 21.4 96 0.4 CALM 0 2 0 1 1013.6 - 0.0
27/12:30am 21.9 25.9 21.3 96 0.4 WSW 2 7 1 4 1013.8 - 0.0
27/12:00am 22.2 25.3 21.4 95 0.5 W 7 11 4 6 1013.9 1013.8 0.0
 
Date/Time
EST
Temp
°C
App
Temp
°C
Dew
Point
°C
Rel
Hum
%
Delta-T
°C
Wind Press
QNH
hPa
Press
MSL
hPa
Rain since
9am
mm
Dir  Spd
km/h
Gust
km/h
Spd
kts
Gust
kts
26/11:30pm 22.6 25.9 21.8 95 0.5 W 7 11 4 6 1014.1 - 0.0
26/11:00pm 22.9 27.7 22.1 95 0.5 CALM 0 0 0 0 1013.9 - 0.0
26/10:30pm 23.3 28.1 22.2 93 0.7 CALM 0 0 0 0 1013.9 - 0.0
26/10:00pm 23.3 27.8 22.2 93 0.7 WSW 2 9 1 5 1013.7 - 0.0
26/09:30pm 23.6 28.7 22.6 94 0.7 CALM 0 6 0 3 1013.7 - 0.0
26/09:00pm 23.3 28.1 22.1 93 0.8 CALM 0 7 0 4 1013.5 1013.4 0.0
26/08:30pm 23.8 28.9 22.6 93 0.8 CALM 0 0 0 0 1013.3 - 0.0
26/08:00pm 23.9 29.0 22.6 92 0.9 CALM 0 0 0 0 1012.9 - 0.0
26/07:30pm 24.4 29.6 22.8 91 1.1 CALM 0 0 0 0 1012.4 - 0.0
26/07:00pm 24.5 29.6 22.6 89 1.3 CALM 0 0 0 0 1012.1 - 0.0
26/06:30pm 25.2 30.2 22.5 85 1.8 CALM 0 0 0 0 1011.7 - 0.0
26/06:00pm 26.0 29.8 22.4 80 2.4 NE 6 9 3 5 1011.4 1011.3 0.0
26/05:30pm 26.8 29.9 22.2 76 3.1 NNE 9 13 5 7 1011.0 - 0.0
26/05:00pm 27.3 30.5 22.3 74 3.4 NE 9 17 5 9 1010.8 - 0.0
26/04:30pm 27.8 30.4 22.0 70 3.9 NE 11 19 6 10 1010.5 - 0.0
26/04:00pm 28.9 31.3 21.6 64 4.9 ENE 11 15 6 8 1010.4 - 0.0
26/03:30pm 29.6 32.0 21.6 62 5.4 ESE 11 20 6 11 1010.3 - 0.0
26/03:00pm 30.2 32.2 21.6 60 5.8 E 13 20 7 11 1010.3 1010.2 0.0
26/02:30pm 30.1 31.7 20.8 57 6.2 SE 13 22 7 12 1010.4 - 0.0
26/02:00pm 30.3 32.1 21.2 58 6.1 ESE 13 22 7 12 1010.6 - 0.0
26/01:30pm 30.5 32.5 21.6 59 6.0 ESE 13 19 7 10 1010.8 - 0.0
26/01:00pm 30.6 33.1 21.7 59 6.0 E 11 20 6 11 1011.1 - 0.0
26/12:30pm 30.6 33.2 21.9 59 5.9 SE 11 17 6 9 1011.5 - 0.0
26/12:00pm 30.7 33.6 21.7 58 6.1 SW 9 15 5 8 1012.0 1011.9 0.0
26/11:30am 29.8 32.9 21.5 61 5.6 SSE 7 11 4 6 1012.7 - 0.0
26/11:00am 29.5 32.8 21.8 63 5.2 ESE 7 13 4 7 1013.1 - 0.0
26/10:30am 29.2 33.1 22.6 67 4.5 SSE 6 11 3 6 1013.4 - 0.0
26/10:00am 28.0 31.5 22.1 70 4.0 SSE 7 11 4 6 1013.7 - 0.0
26/09:30am 28.0 32.2 22.4 71 3.8 WSW 4 11 2 6 1014.1 - 0.0
26/09:00am 26.9 31.3 22.8 78 2.8 WNW 4 7 2 4 1014.3 1014.2 0.0
26/08:30am 25.0 30.5 23.4 91 1.1 CALM 0 0 0 0 1014.2 - 0.0
26/08:00am 22.9 27.8 22.3 96 0.4 CALM 0 0 0 0 1014.1 - 0.0
26/07:30am 21.8 24.5 21.3 97 0.3 SW 9 13 5 7 1013.7 - 0.0
26/07:00am 21.0 24.6 20.5 97 0.3 WNW 2 6 1 3 1013.2 - 0.0
26/06:30am 20.6 24.3 20.0 96 0.4 CALM 0 0 0 0 1012.9 - 0.0
26/06:00am 20.5 24.2 20.0 97 0.3 CALM 0 0 0 0 1012.5 1012.4 0.0
26/05:30am 20.7 24.5 20.2 97 0.3 CALM 0 0 0 0 1012.0 - 0.0
26/05:00am 20.8 24.3 20.3 97 0.3 WNW 2 7 1 4 1011.7 - 0.0
26/04:30am 20.7 24.5 20.1 96 0.4 CALM 0 6 0 3 1011.4 - 0.0
26/04:00am 20.7 24.5 20.1 96 0.4 CALM 0 7 0 4 1011.4 - 0.0
26/03:30am 20.6 23.0 20.1 97 0.3 WSW 7 9 4 5 1011.4 - 0.0
26/03:00am 20.9 24.8 20.4 97 0.3 CALM 0 0 0 0 1011.5 1011.4 0.0
26/02:30am 21.0 25.0 20.5 97 0.3 CALM 0 0 0 0 1011.7 - 0.0
26/02:00am 21.0 22.8 20.4 96 0.4 WSW 11 17 6 9 1011.7 - 0.0
26/01:30am 21.1 24.3 20.5 96 0.4 W 4 7 2 4 1011.8 - 0.0
26/01:00am 21.1 25.1 20.5 96 0.4 CALM 0 0 0 0 1011.9 - 0.0
26/12:30am 21.7 24.8 21.1 96 0.4 W 6 9 3 5 1011.8 - 0.0
26/12:00am 22.0 25.3 21.4 96 0.4 W 6 11 3 6 1011.9 1011.8 0.0

Other Formats:

Comma delimited format used in spreadsheet applications
http://www.bom.gov.au/fwo/IDQ60801/IDQ60801.95292.axf

JavaScript Object Notation format (JSON) in row-major order
http://www.bom.gov.au/fwo/IDQ60801/IDQ60801.95292.json